Terminal Aerodrome Forecast
Issued by NWS Grand Forks, ND

Home | Current Version | Previous Version | Graphics & Text | Print | Product List | Glossary On
Versions: 1 2 3 4 5 6 7 8 9 10 11 12 13 14 15 16
000
FTUS43 KFGF 130500
TAFGFK
TAF
KGFK 130520Z 1306/1406 35014G23KT P6SM SCT005 OVC014
      TEMPO 1306/1310 BKN006
     FM131500 34024G31KT P6SM BKN020
     FM132200 35022G27KT P6SM SCT025
     FM140100 34017KT P6SM SCT030=

USA.gov is the U.S. government's official web portal to all federal, state and local government web resources and services.